sensor_id;sensor_type;location;lat;lon;timestamp;P1;durP1;ratioP1;P2;durP2;ratioP2
7841;SDS011;3966;51.052;13.820;2022-09-09T00:04:38;3.63;;;1.05;;
7841;SDS011;3966;51.052;13.820;2022-09-09T00:12:27;9.23;;;1.55;;
7841;SDS011;3966;51.052;13.820;2022-09-09T00:22:35;5.25;;;1.10;;
7841;SDS011;3966;51.052;13.820;2022-09-09T00:25:12;2.58;;;0.90;;
7841;SDS011;3966;51.052;13.820;2022-09-09T00:27:48;1.85;;;0.93;;
7841;SDS011;3966;51.052;13.820;2022-09-09T00:30:19;2.67;;;0.93;;
7841;SDS011;3966;51.052;13.820;2022-09-09T00:32:50;1.58;;;1.13;;
7841;SDS011;3966;51.052;13.820;2022-09-09T00:35:36;1.08;;;0.90;;
7841;SDS011;3966;51.052;13.820;2022-09-09T00:38:11;1.83;;;0.98;;
7841;SDS011;3966;51.052;13.820;2022-09-09T00:41:14;3.60;;;1.27;;
7841;SDS011;3966;51.052;13.820;2022-09-09T00:43:57;5.88;;;1.42;;
7841;SDS011;3966;51.052;13.820;2022-09-09T00:58:06;1.98;;;1.10;;
7841;SDS011;3966;51.052;13.820;2022-09-09T01:03:39;2.33;;;0.90;;
7841;SDS011;3966;51.052;13.820;2022-09-09T01:06:16;1.33;;;1.23;;
7841;SDS011;3966;51.052;13.820;2022-09-09T01:11:59;1.77;;;0.90;;
7841;SDS011;3966;51.052;13.820;2022-09-09T01:17:03;3.45;;;1.10;;
7841;SDS011;3966;51.052;13.820;2022-09-09T01:27:53;1.92;;;0.88;;
7841;SDS011;3966;51.052;13.820;2022-09-09T01:30:22;5.03;;;1.10;;
7841;SDS011;3966;51.052;13.820;2022-09-09T01:32:50;1.52;;;1.38;;
7841;SDS011;3966;51.052;13.820;2022-09-09T01:35:39;1.88;;;0.98;;
7841;SDS011;3966;51.052;13.820;2022-09-09T01:38:13;4.20;;;1.10;;
7841;SDS011;3966;51.052;13.820;2022-09-09T01:40:40;2.20;;;1.00;;
7841;SDS011;3966;51.052;13.820;2022-09-09T01:43:06;1.10;;;1.00;;
7841;SDS011;3966;51.052;13.820;2022-09-09T01:45:32;1.08;;;0.98;;
7841;SDS011;3966;51.052;13.820;2022-09-09T01:47:59;5.30;;;1.25;;
7841;SDS011;3966;51.052;13.820;2022-09-09T01:50:25;1.23;;;0.73;;
7841;SDS011;3966;51.052;13.820;2022-09-09T01:52:52;3.60;;;0.93;;
7841;SDS011;3966;51.052;13.820;2022-09-09T01:55:23;8.45;;;1.27;;
7841;SDS011;3966;51.052;13.820;2022-09-09T02:01:10;1.40;;;0.90;;
7841;SDS011;3966;51.052;13.820;2022-09-09T02:03:53;1.23;;;1.13;;
7841;SDS011;3966;51.052;13.820;2022-09-09T02:06:40;2.20;;;1.17;;
7841;SDS011;3966;51.052;13.820;2022-09-09T02:09:06;1.80;;;0.98;;
7841;SDS011;3966;51.052;13.820;2022-09-09T02:11:36;7.53;;;1.08;;
7841;SDS011;3966;51.052;13.820;2022-09-09T02:17:24;8.02;;;1.48;;
7841;SDS011;3966;51.052;13.820;2022-09-09T02:19:54;1.95;;;1.48;;
7841;SDS011;3966;51.052;13.820;2022-09-09T02:22:27;1.85;;;1.08;;
7841;SDS011;3966;51.052;13.820;2022-09-09T02:24:55;6.20;;;0.80;;
7841;SDS011;3966;51.052;13.820;2022-09-09T02:27:24;2.53;;;0.98;;
7841;SDS011;3966;51.052;13.820;2022-09-09T02:29:50;2.00;;;1.10;;
7841;SDS011;3966;51.052;13.820;2022-09-09T02:32:19;3.47;;;1.15;;
7841;SDS011;3966;51.052;13.820;2022-09-09T02:34:58;7.57;;;1.10;;
7841;SDS011;3966;51.052;13.820;2022-09-09T02:37:33;6.63;;;1.10;;
7841;SDS011;3966;51.052;13.820;2022-09-09T02:40:05;5.05;;;0.95;;
7841;SDS011;3966;51.052;13.820;2022-09-09T02:42:43;3.70;;;0.98;;
7841;SDS011;3966;51.052;13.820;2022-09-09T02:45:12;1.80;;;1.00;;
7841;SDS011;3966;51.052;13.820;2022-09-09T02:50:12;3.97;;;0.93;;
7841;SDS011;3966;51.052;13.820;2022-09-09T02:52:45;4.78;;;0.98;;
7841;SDS011;3966;51.052;13.820;2022-09-09T02:55:17;1.85;;;1.10;;
7841;SDS011;3966;51.052;13.820;2022-09-09T02:57:52;4.20;;;0.93;;
7841;SDS011;3966;51.052;13.820;2022-09-09T03:00:22;2.63;;;0.98;;
7841;SDS011;3966;51.052;13.820;2022-09-09T03:02:50;1.40;;;1.20;;
7841;SDS011;3966;51.052;13.820;2022-09-09T03:05:16;4.88;;;0.90;;
7841;SDS011;3966;51.052;13.820;2022-09-09T03:07:42;2.63;;;1.27;;
7841;SDS011;3966;51.052;13.820;2022-09-09T03:10:07;3.90;;;0.80;;
7841;SDS011;3966;51.052;13.820;2022-09-09T03:12:33;4.30;;;1.10;;
7841;SDS011;3966;51.052;13.820;2022-09-09T03:14:59;2.35;;;1.17;;
7841;SDS011;3966;51.052;13.820;2022-09-09T03:17:24;4.70;;;1.20;;
7841;SDS011;3966;51.052;13.820;2022-09-09T03:19:50;2.88;;;1.00;;
7841;SDS011;3966;51.052;13.820;2022-09-09T03:22:17;3.00;;;0.95;;
7841;SDS011;3966;51.052;13.820;2022-09-09T03:24:43;6.80;;;1.00;;
7841;SDS011;3966;51.052;13.820;2022-09-09T03:27:08;6.25;;;1.35;;
7841;SDS011;3966;51.052;13.820;2022-09-09T03:29:34;1.75;;;1.15;;
7841;SDS011;3966;51.052;13.820;2022-09-09T03:31:59;5.05;;;1.42;;
7841;SDS011;3966;51.052;13.820;2022-09-09T03:34:25;3.80;;;1.00;;
7841;SDS011;3966;51.052;13.820;2022-09-09T03:36:50;2.67;;;1.15;;
7841;SDS011;3966;51.052;13.820;2022-09-09T03:39:16;1.27;;;1.10;;
7841;SDS011;3966;51.052;13.820;2022-09-09T03:41:42;7.35;;;1.60;;
7841;SDS011;3966;51.052;13.820;2022-09-09T03:44:12;1.30;;;1.20;;
7841;SDS011;3966;51.052;13.820;2022-09-09T03:46:37;3.75;;;1.60;;
7841;SDS011;3966;51.052;13.820;2022-09-09T03:49:03;6.40;;;1.33;;
7841;SDS011;3966;51.052;13.820;2022-09-09T03:51:29;2.88;;;1.20;;
7841;SDS011;3966;51.052;13.820;2022-09-09T03:53:54;1.45;;;1.15;;
7841;SDS011;3966;51.052;13.820;2022-09-09T03:56:21;7.70;;;1.15;;
7841;SDS011;3966;51.052;13.820;2022-09-09T03:58:47;2.33;;;1.27;;
7841;SDS011;3966;51.052;13.820;2022-09-09T04:01:13;3.75;;;1.23;;
7841;SDS011;3966;51.052;13.820;2022-09-09T04:03:39;8.65;;;1.23;;
7841;SDS011;3966;51.052;13.820;2022-09-09T04:06:05;1.30;;;1.08;;
7841;SDS011;3966;51.052;13.820;2022-09-09T04:08:34;4.97;;;1.38;;
7841;SDS011;3966;51.052;13.820;2022-09-09T04:11:01;3.20;;;1.20;;
7841;SDS011;3966;51.052;13.820;2022-09-09T04:13:27;6.97;;;1.15;;
7841;SDS011;3966;51.052;13.820;2022-09-09T04:15:58;5.75;;;1.30;;
7841;SDS011;3966;51.052;13.820;2022-09-09T04:18:26;8.23;;;1.60;;
7841;SDS011;3966;51.052;13.820;2022-09-09T04:20:53;2.20;;;1.63;;
7841;SDS011;3966;51.052;13.820;2022-09-09T04:23:22;7.13;;;1.10;;
7841;SDS011;3966;51.052;13.820;2022-09-09T04:25:49;2.97;;;1.25;;
7841;SDS011;3966;51.052;13.820;2022-09-09T04:28:17;5.25;;;1.58;;
7841;SDS011;3966;51.052;13.820;2022-09-09T04:30:44;6.38;;;1.30;;
7841;SDS011;3966;51.052;13.820;2022-09-09T04:33:10;5.90;;;1.35;;
7841;SDS011;3966;51.052;13.820;2022-09-09T04:35:36;3.30;;;1.45;;
7841;SDS011;3966;51.052;13.820;2022-09-09T04:38:03;2.05;;;0.90;;
7841;SDS011;3966;51.052;13.820;2022-09-09T04:40:30;2.38;;;1.23;;
7841;SDS011;3966;51.052;13.820;2022-09-09T04:42:59;4.07;;;1.25;;
7841;SDS011;3966;51.052;13.820;2022-09-09T04:45:25;2.65;;;0.80;;
7841;SDS011;3966;51.052;13.820;2022-09-09T04:47:51;5.55;;;1.27;;
7841;SDS011;3966;51.052;13.820;2022-09-09T04:50:17;3.88;;;1.10;;
7841;SDS011;3966;51.052;13.820;2022-09-09T04:52:43;4.82;;;1.10;;
7841;SDS011;3966;51.052;13.820;2022-09-09T04:55:09;2.10;;;1.30;;
7841;SDS011;3966;51.052;13.820;2022-09-09T04:57:34;4.20;;;1.17;;
7841;SDS011;3966;51.052;13.820;2022-09-09T05:00:00;1.25;;;1.15;;
7841;SDS011;3966;51.052;13.820;2022-09-09T05:02:26;4.55;;;1.10;;
7841;SDS011;3966;51.052;13.820;2022-09-09T05:04:52;3.70;;;1.27;;
7841;SDS011;3966;51.052;13.820;2022-09-09T05:07:17;6.63;;;1.48;;
7841;SDS011;3966;51.052;13.820;2022-09-09T05:09:43;3.63;;;1.27;;
7841;SDS011;3966;51.052;13.820;2022-09-09T05:12:10;4.07;;;0.90;;
7841;SDS011;3966;51.052;13.820;2022-09-09T05:14:35;5.95;;;1.08;;
7841;SDS011;3966;51.052;13.820;2022-09-09T05:17:02;1.85;;;0.95;;
7841;SDS011;3966;51.052;13.820;2022-09-09T05:19:28;4.00;;;0.95;;
7841;SDS011;3966;51.052;13.820;2022-09-09T05:21:53;4.85;;;1.00;;
7841;SDS011;3966;51.052;13.820;2022-09-09T05:24:18;3.58;;;1.10;;
7841;SDS011;3966;51.052;13.820;2022-09-09T05:26:44;3.72;;;0.93;;
7841;SDS011;3966;51.052;13.820;2022-09-09T05:29:09;4.03;;;1.40;;
7841;SDS011;3966;51.052;13.820;2022-09-09T05:31:35;6.18;;;1.30;;
7841;SDS011;3966;51.052;13.820;2022-09-09T05:34:01;3.47;;;1.10;;
7841;SDS011;3966;51.052;13.820;2022-09-09T05:36:27;8.10;;;1.20;;
7841;SDS011;3966;51.052;13.820;2022-09-09T05:38:52;4.38;;;1.30;;
7841;SDS011;3966;51.052;13.820;2022-09-09T05:41:20;1.40;;;1.30;;
7841;SDS011;3966;51.052;13.820;2022-09-09T05:43:48;3.53;;;1.10;;
7841;SDS011;3966;51.052;13.820;2022-09-09T05:46:20;2.58;;;1.20;;
7841;SDS011;3966;51.052;13.820;2022-09-09T05:48:48;2.15;;;1.08;;
7841;SDS011;3966;51.052;13.820;2022-09-09T05:51:19;4.38;;;0.90;;
7841;SDS011;3966;51.052;13.820;2022-09-09T05:53:47;1.73;;;1.10;;
7841;SDS011;3966;51.052;13.820;2022-09-09T05:56:14;1.95;;;0.93;;
7841;SDS011;3966;51.052;13.820;2022-09-09T05:58:44;2.35;;;1.25;;
7841;SDS011;3966;51.052;13.820;2022-09-09T06:01:15;2.90;;;1.15;;
7841;SDS011;3966;51.052;13.820;2022-09-09T06:03:43;6.30;;;1.20;;
7841;SDS011;3966;51.052;13.820;2022-09-09T06:06:11;1.20;;;1.05;;
7841;SDS011;3966;51.052;13.820;2022-09-09T06:08:38;1.45;;;1.13;;
7841;SDS011;3966;51.052;13.820;2022-09-09T06:11:08;3.25;;;1.23;;
7841;SDS011;3966;51.052;13.820;2022-09-09T06:13:38;3.72;;;1.38;;
7841;SDS011;3966;51.052;13.820;2022-09-09T06:16:08;9.35;;;1.35;;
7841;SDS011;3966;51.052;13.820;2022-09-09T06:18:36;6.80;;;1.13;;
7841;SDS011;3966;51.052;13.820;2022-09-09T06:21:03;3.22;;;1.13;;
7841;SDS011;3966;51.052;13.820;2022-09-09T06:23:31;1.50;;;0.82;;
7841;SDS011;3966;51.052;13.820;2022-09-09T06:26:04;5.03;;;1.35;;
7841;SDS011;3966;51.052;13.820;2022-09-09T06:28:32;1.60;;;0.93;;
7841;SDS011;3966;51.052;13.820;2022-09-09T06:30:58;11.20;;;1.45;;
7841;SDS011;3966;51.052;13.820;2022-09-09T06:33:25;2.30;;;0.90;;
7841;SDS011;3966;51.052;13.820;2022-09-09T06:35:51;2.00;;;1.00;;
7841;SDS011;3966;51.052;13.820;2022-09-09T06:38:18;1.30;;;1.08;;
7841;SDS011;3966;51.052;13.820;2022-09-09T06:40:50;3.30;;;1.17;;
7841;SDS011;3966;51.052;13.820;2022-09-09T06:43:22;6.47;;;1.25;;
7841;SDS011;3966;51.052;13.820;2022-09-09T06:46:10;4.28;;;1.20;;
7841;SDS011;3966;51.052;13.820;2022-09-09T06:49:00;2.95;;;1.13;;
7841;SDS011;3966;51.052;13.820;2022-09-09T06:51:28;2.22;;;1.00;;
7841;SDS011;3966;51.052;13.820;2022-09-09T06:53:56;2.60;;;1.10;;
7841;SDS011;3966;51.052;13.820;2022-09-09T06:56:27;1.83;;;0.90;;
7841;SDS011;3966;51.052;13.820;2022-09-09T06:58:58;4.20;;;1.30;;
7841;SDS011;3966;51.052;13.820;2022-09-09T07:01:28;2.35;;;0.90;;
7841;SDS011;3966;51.052;13.820;2022-09-09T07:03:55;2.08;;;1.20;;
7841;SDS011;3966;51.052;13.820;2022-09-09T07:06:24;1.38;;;1.00;;
7841;SDS011;3966;51.052;13.820;2022-09-09T07:08:52;1.92;;;0.80;;
7841;SDS011;3966;51.052;13.820;2022-09-09T07:11:20;2.45;;;1.00;;
7841;SDS011;3966;51.052;13.820;2022-09-09T07:13:47;5.05;;;1.30;;
7841;SDS011;3966;51.052;13.820;2022-09-09T07:16:14;2.85;;;0.90;;
7841;SDS011;3966;51.052;13.820;2022-09-09T07:18:42;1.25;;;0.85;;
7841;SDS011;3966;51.052;13.820;2022-09-09T07:21:09;1.33;;;0.90;;
7841;SDS011;3966;51.052;13.820;2022-09-09T07:23:36;5.95;;;1.27;;
7841;SDS011;3966;51.052;13.820;2022-09-09T07:26:06;4.60;;;1.00;;
7841;SDS011;3966;51.052;13.820;2022-09-09T07:28:34;3.53;;;0.93;;
7841;SDS011;3966;51.052;13.820;2022-09-09T07:31:00;1.38;;;0.70;;
7841;SDS011;3966;51.052;13.820;2022-09-09T07:33:27;1.75;;;0.98;;
7841;SDS011;3966;51.052;13.820;2022-09-09T07:36:01;7.80;;;0.98;;
7841;SDS011;3966;51.052;13.820;2022-09-09T07:38:32;4.15;;;1.23;;
7841;SDS011;3966;51.052;13.820;2022-09-09T07:41:05;4.78;;;0.90;;
7841;SDS011;3966;51.052;13.820;2022-09-09T07:43:34;0.98;;;0.85;;
7841;SDS011;3966;51.052;13.820;2022-09-09T07:45:59;5.63;;;0.90;;
7841;SDS011;3966;51.052;13.820;2022-09-09T07:48:29;3.38;;;0.70;;
7841;SDS011;3966;51.052;13.820;2022-09-09T07:53:30;4.15;;;0.80;;
7841;SDS011;3966;51.052;13.820;2022-09-09T07:56:01;2.83;;;1.00;;
7841;SDS011;3966;51.052;13.820;2022-09-09T07:58:28;0.93;;;0.80;;
7841;SDS011;3966;51.052;13.820;2022-09-09T08:00:54;1.55;;;0.63;;
7841;SDS011;3966;51.052;13.820;2022-09-09T08:03:19;1.13;;;0.77;;
7841;SDS011;3966;51.052;13.820;2022-09-09T08:05:46;1.10;;;0.60;;
7841;SDS011;3966;51.052;13.820;2022-09-09T08:08:12;0.93;;;0.70;;
7841;SDS011;3966;51.052;13.820;2022-09-09T08:10:38;2.67;;;1.00;;
7841;SDS011;3966;51.052;13.820;2022-09-09T08:13:03;1.98;;;1.33;;
7841;SDS011;3966;51.052;13.820;2022-09-09T08:15:30;2.22;;;0.77;;
7841;SDS011;3966;51.052;13.820;2022-09-09T08:17:57;3.95;;;0.77;;
7841;SDS011;3966;51.052;13.820;2022-09-09T08:20:22;1.25;;;0.70;;
7841;SDS011;3966;51.052;13.820;2022-09-09T08:22:48;3.08;;;0.80;;
7841;SDS011;3966;51.052;13.820;2022-09-09T08:25:14;0.95;;;0.82;;
7841;SDS011;3966;51.052;13.820;2022-09-09T08:27:40;5.38;;;1.15;;
7841;SDS011;3966;51.052;13.820;2022-09-09T08:30:06;4.63;;;1.08;;
7841;SDS011;3966;51.052;13.820;2022-09-09T08:32:32;2.38;;;0.80;;
7841;SDS011;3966;51.052;13.820;2022-09-09T08:34:57;3.17;;;0.80;;
7841;SDS011;3966;51.052;13.820;2022-09-09T08:37:23;2.85;;;1.17;;
7841;SDS011;3966;51.052;13.820;2022-09-09T08:39:48;1.80;;;0.95;;
7841;SDS011;3966;51.052;13.820;2022-09-09T08:42:20;1.73;;;0.80;;
7841;SDS011;3966;51.052;13.820;2022-09-09T08:45:02;2.40;;;1.10;;
7841;SDS011;3966;51.052;13.820;2022-09-09T08:47:55;1.60;;;1.05;;
7841;SDS011;3966;51.052;13.820;2022-09-09T08:50:25;3.88;;;1.00;;
7841;SDS011;3966;51.052;13.820;2022-09-09T08:55:37;1.05;;;0.90;;
7841;SDS011;3966;51.052;13.820;2022-09-09T08:58:23;1.58;;;1.20;;
7841;SDS011;3966;51.052;13.820;2022-09-09T09:09:09;0.88;;;0.88;;
7841;SDS011;3966;51.052;13.820;2022-09-09T09:11:44;1.25;;;0.82;;
7841;SDS011;3966;51.052;13.820;2022-09-09T09:14:25;2.85;;;0.90;;
7841;SDS011;3966;51.052;13.820;2022-09-09T09:17:12;1.45;;;1.00;;
7841;SDS011;3966;51.052;13.820;2022-09-09T09:19:42;1.95;;;0.80;;
7841;SDS011;3966;51.052;13.820;2022-09-09T09:22:21;2.38;;;0.70;;
7841;SDS011;3966;51.052;13.820;2022-09-09T09:30:37;6.03;;;1.27;;
7841;SDS011;3966;51.052;13.820;2022-09-09T09:35:48;1.58;;;0.50;;
7841;SDS011;3966;51.052;13.820;2022-09-09T09:38:16;5.93;;;1.15;;
7841;SDS011;3966;51.052;13.820;2022-09-09T09:40:54;3.08;;;0.70;;
7841;SDS011;3966;51.052;13.820;2022-09-09T09:43:32;3.67;;;0.80;;
7841;SDS011;3966;51.052;13.820;2022-09-09T09:45:59;4.43;;;0.60;;
7841;SDS011;3966;51.052;13.820;2022-09-09T09:48:26;5.28;;;0.70;;
7841;SDS011;3966;51.052;13.820;2022-09-09T09:50:53;2.03;;;0.70;;
7841;SDS011;3966;51.052;13.820;2022-09-09T09:53:26;4.72;;;0.82;;
7841;SDS011;3966;51.052;13.820;2022-09-09T09:58:27;3.83;;;0.43;;
7841;SDS011;3966;51.052;13.820;2022-09-09T10:00:57;1.85;;;0.60;;
7841;SDS011;3966;51.052;13.820;2022-09-09T10:03:31;0.57;;;0.30;;
7841;SDS011;3966;51.052;13.820;2022-09-09T10:06:02;1.35;;;0.30;;
7841;SDS011;3966;51.052;13.820;2022-09-09T10:08:28;0.93;;;0.40;;
7841;SDS011;3966;51.052;13.820;2022-09-09T10:16:28;3.45;;;0.40;;
7841;SDS011;3966;51.052;13.820;2022-09-09T10:19:05;1.42;;;0.50;;
7841;SDS011;3966;51.052;13.820;2022-09-09T10:21:46;0.93;;;0.40;;
7841;SDS011;3966;51.052;13.820;2022-09-09T10:24:25;3.92;;;0.60;;
7841;SDS011;3966;51.052;13.820;2022-09-09T10:26:58;0.88;;;0.47;;
7841;SDS011;3966;51.052;13.820;2022-09-09T10:32:38;3.38;;;0.65;;
7841;SDS011;3966;51.052;13.820;2022-09-09T10:35:34;8.32;;;0.85;;
7841;SDS011;3966;51.052;13.820;2022-09-09T10:38:40;4.40;;;1.15;;
7841;SDS011;3966;51.052;13.820;2022-09-09T10:43:40;3.10;;;0.82;;
7841;SDS011;3966;51.052;13.820;2022-09-09T10:49:09;2.95;;;0.80;;
7841;SDS011;3966;51.052;13.820;2022-09-09T10:51:57;1.90;;;0.60;;
7841;SDS011;3966;51.052;13.820;2022-09-09T10:57:36;2.33;;;0.70;;
7841;SDS011;3966;51.052;13.820;2022-09-09T11:00:22;3.50;;;0.70;;
7841;SDS011;3966;51.052;13.820;2022-09-09T11:02:59;1.35;;;0.50;;
7841;SDS011;3966;51.052;13.820;2022-09-09T11:05:42;2.05;;;0.70;;
7841;SDS011;3966;51.052;13.820;2022-09-09T11:10:53;2.00;;;0.80;;
7841;SDS011;3966;51.052;13.820;2022-09-09T11:13:45;3.75;;;0.95;;
7841;SDS011;3966;51.052;13.820;2022-09-09T11:21:55;2.15;;;0.95;;
7841;SDS011;3966;51.052;13.820;2022-09-09T11:24:27;3.10;;;0.73;;
7841;SDS011;3966;51.052;13.820;2022-09-09T11:26:58;2.58;;;0.75;;
7841;SDS011;3966;51.052;13.820;2022-09-09T11:29:38;4.10;;;0.90;;
7841;SDS011;3966;51.052;13.820;2022-09-09T11:35:17;0.75;;;0.65;;
7841;SDS011;3966;51.052;13.820;2022-09-09T11:40:43;4.65;;;0.90;;
7841;SDS011;3966;51.052;13.820;2022-09-09T11:43:10;2.53;;;1.13;;
7841;SDS011;3966;51.052;13.820;2022-09-09T11:45:38;2.35;;;1.20;;
7841;SDS011;3966;51.052;13.820;2022-09-09T11:48:21;1.25;;;0.85;;
7841;SDS011;3966;51.052;13.820;2022-09-09T11:51:01;0.98;;;0.70;;
7841;SDS011;3966;51.052;13.820;2022-09-09T11:53:35;3.63;;;1.00;;
7841;SDS011;3966;51.052;13.820;2022-09-09T11:56:13;2.85;;;0.90;;
7841;SDS011;3966;51.052;13.820;2022-09-09T12:01:27;2.50;;;0.90;;
7841;SDS011;3966;51.052;13.820;2022-09-09T12:06:41;2.35;;;1.00;;
7841;SDS011;3966;51.052;13.820;2022-09-09T12:09:12;3.50;;;1.10;;
7841;SDS011;3966;51.052;13.820;2022-09-09T12:12:07;2.72;;;1.00;;
7841;SDS011;3966;51.052;13.820;2022-09-09T12:17:25;2.60;;;0.90;;
7841;SDS011;3966;51.052;13.820;2022-09-09T12:22:35;7.65;;;1.10;;
7841;SDS011;3966;51.052;13.820;2022-09-09T12:25:20;2.97;;;0.75;;
7841;SDS011;3966;51.052;13.820;2022-09-09T12:28:10;1.10;;;1.00;;
7841;SDS011;3966;51.052;13.820;2022-09-09T12:30:48;1.38;;;0.85;;
7841;SDS011;3966;51.052;13.820;2022-09-09T12:33:17;2.15;;;0.80;;
7841;SDS011;3966;51.052;13.820;2022-09-09T12:35:44;2.50;;;0.82;;
7841;SDS011;3966;51.052;13.820;2022-09-09T12:38:16;0.70;;;0.70;;
7841;SDS011;3966;51.052;13.820;2022-09-09T12:40:55;2.60;;;0.90;;
7841;SDS011;3966;51.052;13.820;2022-09-09T12:43:22;4.63;;;1.35;;
7841;SDS011;3966;51.052;13.820;2022-09-09T12:45:50;1.45;;;0.80;;
7841;SDS011;3966;51.052;13.820;2022-09-09T12:48:22;2.03;;;1.08;;
7841;SDS011;3966;51.052;13.820;2022-09-09T12:50:59;2.10;;;0.93;;
7841;SDS011;3966;51.052;13.820;2022-09-09T12:53:29;1.50;;;1.00;;
7841;SDS011;3966;51.052;13.820;2022-09-09T12:55:59;4.18;;;0.95;;
7841;SDS011;3966;51.052;13.820;2022-09-09T12:58:33;2.38;;;1.10;;
7841;SDS011;3966;51.052;13.820;2022-09-09T13:01:01;0.90;;;0.70;;
7841;SDS011;3966;51.052;13.820;2022-09-09T13:03:31;2.85;;;0.82;;
7841;SDS011;3966;51.052;13.820;2022-09-09T13:05:59;3.78;;;1.00;;
7841;SDS011;3966;51.052;13.820;2022-09-09T13:08:36;3.97;;;1.30;;
7841;SDS011;3966;51.052;13.820;2022-09-09T13:11:03;3.05;;;0.55;;
7841;SDS011;3966;51.052;13.820;2022-09-09T13:13:38;3.90;;;0.80;;
7841;SDS011;3966;51.052;13.820;2022-09-09T13:16:06;2.55;;;0.90;;
7841;SDS011;3966;51.052;13.820;2022-09-09T13:18:43;1.38;;;0.90;;
7841;SDS011;3966;51.052;13.820;2022-09-09T13:21:08;2.05;;;0.90;;
7841;SDS011;3966;51.052;13.820;2022-09-09T13:23:35;0.93;;;0.63;;
7841;SDS011;3966;51.052;13.820;2022-09-09T13:28:50;1.48;;;0.60;;
7841;SDS011;3966;51.052;13.820;2022-09-09T13:31:27;3.75;;;0.75;;
7841;SDS011;3966;51.052;13.820;2022-09-09T13:33:54;1.08;;;0.90;;
7841;SDS011;3966;51.052;13.820;2022-09-09T13:36:30;1.42;;;0.63;;
7841;SDS011;3966;51.052;13.820;2022-09-09T13:38:58;1.85;;;0.80;;
7841;SDS011;3966;51.052;13.820;2022-09-09T13:41:32;2.83;;;0.70;;
7841;SDS011;3966;51.052;13.820;2022-09-09T13:44:00;1.42;;;1.20;;
7841;SDS011;3966;51.052;13.820;2022-09-09T13:51:34;2.70;;;0.82;;
7841;SDS011;3966;51.052;13.820;2022-09-09T13:54:06;2.10;;;0.80;;
7841;SDS011;3966;51.052;13.820;2022-09-09T13:56:35;1.75;;;0.65;;
7841;SDS011;3966;51.052;13.820;2022-09-09T13:59:02;2.95;;;0.75;;
7841;SDS011;3966;51.052;13.820;2022-09-09T14:01:29;5.07;;;0.70;;
7841;SDS011;3966;51.052;13.820;2022-09-09T14:03:55;2.97;;;0.73;;
7841;SDS011;3966;51.052;13.820;2022-09-09T14:06:20;1.63;;;0.60;;
7841;SDS011;3966;51.052;13.820;2022-09-09T14:08:47;1.95;;;0.57;;
7841;SDS011;3966;51.052;13.820;2022-09-09T14:11:13;3.53;;;0.85;;
7841;SDS011;3966;51.052;13.820;2022-09-09T14:13:39;1.90;;;0.60;;
7841;SDS011;3966;51.052;13.820;2022-09-09T14:16:05;2.42;;;0.70;;
7841;SDS011;3966;51.052;13.820;2022-09-09T14:18:30;2.60;;;0.60;;
7841;SDS011;3966;51.052;13.820;2022-09-09T14:20:56;3.70;;;0.70;;
7841;SDS011;3966;51.052;13.820;2022-09-09T14:23:23;1.45;;;0.88;;
7841;SDS011;3966;51.052;13.820;2022-09-09T14:25:49;2.97;;;0.80;;
7841;SDS011;3966;51.052;13.820;2022-09-09T14:28:15;3.70;;;0.75;;
7841;SDS011;3966;51.052;13.820;2022-09-09T14:30:41;2.42;;;0.80;;
7841;SDS011;3966;51.052;13.820;2022-09-09T14:33:07;1.38;;;0.70;;
7841;SDS011;3966;51.052;13.820;2022-09-09T14:35:35;1.70;;;0.82;;
7841;SDS011;3966;51.052;13.820;2022-09-09T14:38:02;4.80;;;0.70;;
7841;SDS011;3966;51.052;13.820;2022-09-09T14:40:28;0.88;;;0.70;;
7841;SDS011;3966;51.052;13.820;2022-09-09T14:42:54;1.30;;;0.80;;
7841;SDS011;3966;51.052;13.820;2022-09-09T14:45:21;3.97;;;0.80;;
7841;SDS011;3966;51.052;13.820;2022-09-09T14:47:49;1.67;;;0.80;;
7841;SDS011;3966;51.052;13.820;2022-09-09T14:50:16;2.15;;;0.60;;
7841;SDS011;3966;51.052;13.820;2022-09-09T14:52:43;2.35;;;0.82;;
7841;SDS011;3966;51.052;13.820;2022-09-09T14:55:09;3.63;;;0.70;;
7841;SDS011;3966;51.052;13.820;2022-09-09T14:57:34;3.28;;;0.60;;
7841;SDS011;3966;51.052;13.820;2022-09-09T15:00:01;1.15;;;0.60;;
7841;SDS011;3966;51.052;13.820;2022-09-09T15:02:28;6.38;;;0.73;;
7841;SDS011;3966;51.052;13.820;2022-09-09T15:04:54;2.83;;;0.90;;
7841;SDS011;3966;51.052;13.820;2022-09-09T15:07:22;2.30;;;0.82;;
7841;SDS011;3966;51.052;13.820;2022-09-09T15:09:48;2.47;;;0.70;;
7841;SDS011;3966;51.052;13.820;2022-09-09T15:12:14;5.55;;;0.70;;
7841;SDS011;3966;51.052;13.820;2022-09-09T15:14:40;4.43;;;0.80;;
7841;SDS011;3966;51.052;13.820;2022-09-09T15:17:06;2.17;;;0.90;;
7841;SDS011;3966;51.052;13.820;2022-09-09T15:19:31;6.97;;;2.97;;
7841;SDS011;3966;51.052;13.820;2022-09-09T15:21:57;13.52;;;5.07;;
7841;SDS011;3966;51.052;13.820;2022-09-09T15:24:24;6.45;;;2.90;;
7841;SDS011;3966;51.052;13.820;2022-09-09T15:26:51;2.88;;;1.13;;
7841;SDS011;3966;51.052;13.820;2022-09-09T15:29:16;2.28;;;0.77;;
7841;SDS011;3966;51.052;13.820;2022-09-09T15:31:42;2.55;;;0.60;;
7841;SDS011;3966;51.052;13.820;2022-09-09T15:34:07;1.58;;;0.70;;
7841;SDS011;3966;51.052;13.820;2022-09-09T15:36:34;2.75;;;1.40;;
7841;SDS011;3966;51.052;13.820;2022-09-09T15:39:08;0.93;;;0.77;;
7841;SDS011;3966;51.052;13.820;2022-09-09T15:41:40;2.53;;;0.77;;
7841;SDS011;3966;51.052;13.820;2022-09-09T15:44:07;1.77;;;0.75;;
7841;SDS011;3966;51.052;13.820;2022-09-09T15:46:40;3.30;;;0.80;;
7841;SDS011;3966;51.052;13.820;2022-09-09T15:49:08;3.40;;;0.93;;
7841;SDS011;3966;51.052;13.820;2022-09-09T15:51:39;6.47;;;1.08;;
7841;SDS011;3966;51.052;13.820;2022-09-09T15:54:07;3.10;;;1.08;;
7841;SDS011;3966;51.052;13.820;2022-09-09T15:56:34;5.63;;;1.00;;
7841;SDS011;3966;51.052;13.820;2022-09-09T15:59:00;3.70;;;0.70;;
7841;SDS011;3966;51.052;13.820;2022-09-09T16:01:28;2.25;;;1.00;;
7841;SDS011;3966;51.052;13.820;2022-09-09T16:03:55;2.35;;;0.70;;
7841;SDS011;3966;51.052;13.820;2022-09-09T16:06:21;1.58;;;0.80;;
7841;SDS011;3966;51.052;13.820;2022-09-09T16:08:50;1.88;;;0.80;;
7841;SDS011;3966;51.052;13.820;2022-09-09T16:11:18;3.17;;;0.68;;
7841;SDS011;3966;51.052;13.820;2022-09-09T16:13:47;3.03;;;0.73;;
7841;SDS011;3966;51.052;13.820;2022-09-09T16:16:13;1.05;;;0.70;;
7841;SDS011;3966;51.052;13.820;2022-09-09T16:18:44;2.80;;;0.60;;
7841;SDS011;3966;51.052;13.820;2022-09-09T16:21:12;1.60;;;0.77;;
7841;SDS011;3966;51.052;13.820;2022-09-09T16:23:43;2.15;;;0.93;;
7841;SDS011;3966;51.052;13.820;2022-09-09T16:26:12;4.45;;;0.80;;
7841;SDS011;3966;51.052;13.820;2022-09-09T16:28:39;1.90;;;0.70;;
7841;SDS011;3966;51.052;13.820;2022-09-09T16:31:05;2.10;;;1.00;;
7841;SDS011;3966;51.052;13.820;2022-09-09T16:33:31;2.47;;;0.88;;
7841;SDS011;3966;51.052;13.820;2022-09-09T16:35:57;3.50;;;0.90;;
7841;SDS011;3966;51.052;13.820;2022-09-09T16:38:23;2.17;;;0.65;;
7841;SDS011;3966;51.052;13.820;2022-09-09T16:40:49;3.10;;;0.75;;
7841;SDS011;3966;51.052;13.820;2022-09-09T16:43:15;1.58;;;0.70;;
7841;SDS011;3966;51.052;13.820;2022-09-09T16:45:44;3.70;;;0.85;;
7841;SDS011;3966;51.052;13.820;2022-09-09T16:48:10;1.42;;;0.77;;
7841;SDS011;3966;51.052;13.820;2022-09-09T16:50:36;3.08;;;0.93;;
7841;SDS011;3966;51.052;13.820;2022-09-09T16:53:02;2.83;;;0.80;;
7841;SDS011;3966;51.052;13.820;2022-09-09T16:55:29;1.60;;;1.00;;
7841;SDS011;3966;51.052;13.820;2022-09-09T16:57:54;3.60;;;1.20;;
7841;SDS011;3966;51.052;13.820;2022-09-09T17:00:20;1.70;;;0.88;;
7841;SDS011;3966;51.052;13.820;2022-09-09T17:02:48;4.68;;;0.93;;
7841;SDS011;3966;51.052;13.820;2022-09-09T17:05:13;2.15;;;0.80;;
7841;SDS011;3966;51.052;13.820;2022-09-09T17:07:39;1.55;;;0.95;;
7841;SDS011;3966;51.052;13.820;2022-09-09T17:10:05;3.00;;;0.98;;
7841;SDS011;3966;51.052;13.820;2022-09-09T17:12:32;3.28;;;1.30;;
7841;SDS011;3966;51.052;13.820;2022-09-09T17:14:58;4.97;;;1.40;;
7841;SDS011;3966;51.052;13.820;2022-09-09T17:17:24;5.00;;;1.30;;
7841;SDS011;3966;51.052;13.820;2022-09-09T17:19:51;2.47;;;0.98;;
7841;SDS011;3966;51.052;13.820;2022-09-09T17:22:17;3.30;;;1.08;;
7841;SDS011;3966;51.052;13.820;2022-09-09T17:24:43;1.75;;;1.10;;